Time;durP1;ratioP1;P1;durP2;ratioP2;P2;SDS_P1;SDS_P2;PMS_P1;PMS_P2;Temp;Humidity;BMP_temperature;BMP_pressure;BME280_temperature;BME280_humidity;BME280_pressure;Samples;Min_cycle;Max_cycle;Signal;HPM_P1;HPM_P2
2020/01/29 00:00:18;;;;;;;1.8;1;;;;;;;2.28;83.92969;927.0386;;;;
2020/01/29 00:02:44;;;;;;;1.9;0.9;;;;;;;2.2;83.86914;927.0027;;;;
2020/01/29 00:05:19;;;;;;;3;1.3;;;;;;;;;;;;;
2020/01/29 00:07:44;;;;;;;2.6;1.3;;;;;;;;;;;;;
2020/01/29 00:10:09;;;;;;;3.2;1.6;;;;;;;;;;;;;
2020/01/29 00:12:34;;;;;;;5.6;2;;;;;;;;;;;;;
2020/01/29 00:15:02;;;;;;;4.4;1.6;;;;;;;;;;;;;
2020/01/29 00:20:07;;;;;;;4.9;1.9;;;;;;;;;;;;;
2020/01/29 00:22:27;;;;;;;3.5;1.8;;;;;;;;;;;;;
2020/01/29 00:24:45;;;;;;;4.2;2.1;;;;;;;;;;;;;
2020/01/29 00:27:10;;;;;;;3.5;1.7;;;;;;;;;;;;;
2020/01/29 00:29:35;;;;;;;2.7;1.7;;;;;;;;;;;;;
2020/01/29 00:32:01;;;;;;;3.8;2;;;;;;;;;;;;;
2020/01/29 00:34:26;;;;;;;4.9;2.6;;;;;;;;;;;;;
2020/01/29 00:36:51;;;;;;;4.3;2.3;;;;;;;;;;;;;
2020/01/29 00:39:16;;;;;;;4.4;2.2;;;;;;;;;;;;;
2020/01/29 00:41:41;;;;;;;5.9;3;;;;;;;;;;;;;
2020/01/29 00:44:06;;;;;;;8.5;5.3;;;;;;;;;;;;;
2020/01/29 00:46:32;;;;;;;7.3;4.5;;;;;;;;;;;;;
2020/01/29 00:48:57;;;;;;;4.8;2.9;;;;;;;;;;;;;
2020/01/29 00:51:22;;;;;;;4.8;2.8;;;;;;;;;;;;;
2020/01/29 00:53:47;;;;;;;6.2;3.5;;;;;;;;;;;;;
2020/01/29 00:56:17;;;;;;;4.7;3.1;;;;;;;;;;;;;
2020/01/29 00:58:42;;;;;;;5.8;3.2;;;;;;;;;;;;;
2020/01/29 01:01:13;;;;;;;4.6;3.3;;;;;;;;;;;;;
2020/01/29 01:03:32;;;;;;;6.6;3;;;;;;;;;;;;;
2020/01/29 01:05:58;;;;;;;5.1;2.1;;;;;;;;;;;;;
2020/01/29 01:08:23;;;;;;;3.5;1.8;;;;;;;;;;;;;
2020/01/29 01:10:48;;;;;;;3.1;1.7;;;;;;;;;;;;;
2020/01/29 01:13:13;;;;;;;3.5;1.7;;;;;;;;;;;;;
2020/01/29 01:16:00;;;;;;;3.5;1.4;;;;;;;;;;;;;
2020/01/29 01:18:17;;;;;;;3;1.4;;;;;;;;;;;;;
2020/01/29 01:20:40;;;;;;;4.4;1.7;;;;;;;;;;;;;
2020/01/29 01:23:04;;;;;;;2.7;1.2;;;;;;;;;;;;;
2020/01/29 01:25:29;;;;;;;2.3;1.1;;;;;;;;;;;;;
2020/01/29 01:27:54;;;;;;;2.1;1.1;;;;;;;;;;;;;
2020/01/29 01:30:40;;;;;;;1.4;0.8;;;;;;;;;;;;;
2020/01/29 01:32:51;;;;;;;2.3;1;;;;;;;;;;;;;
2020/01/29 01:35:16;;;;;;;1.8;0.9;;;;;;;;;;;;;
2020/01/29 01:37:41;;;;;;;2.8;0.8;;;;;;;;;;;;;
2020/01/29 01:40:16;;;;;;;3.3;0.9;;;;;;;;;;;;;
2020/01/29 01:42:42;;;;;;;3;0.8;;;;;;;;;;;;;
2020/01/29 01:45:07;;;;;;;1.2;0.7;;;;;;;;;;;;;
2020/01/29 01:47:32;;;;;;;2.2;0.8;;;;;;;;;;;;;
2020/01/29 01:49:57;;;;;;;2.6;0.9;;;;;;;;;;;;;
2020/01/29 01:52:25;;;;;;;2.8;1.1;;;;;;;;;;;;;
2020/01/29 01:54:50;;;;;;;2.4;1;;;;;;;;;;;;;
2020/01/29 01:57:15;;;;;;;2.1;0.7;;;;;;;;;;;;;
2020/01/29 01:59:41;;;;;;;2.2;0.9;;;;;;;;;;;;;
2020/01/29 02:02:13;;;;;;;3.3;0.9;;;;;;;;;;;;;
2020/01/29 02:04:39;;;;;;;4.1;0.9;;;;;;;;;;;;;
2020/01/29 02:07:04;;;;;;;2.3;0.8;;;;;;;;;;;;;
2020/01/29 02:09:29;;;;;;;1.7;0.8;;;;;;;;;;;;;
2020/01/29 02:12:02;;;;;;;1.7;0.8;;;;;;;;;;;;;
2020/01/29 02:14:27;;;;;;;4.1;0.8;;;;;;;;;;;;;
2020/01/29 02:16:52;;;;;;;2.5;0.8;;;;;;;;;;;;;
2020/01/29 02:19:17;;;;;;;3.2;0.8;;;;;;;;;;;;;
2020/01/29 02:21:42;;;;;;;1.9;0.8;;;;;;;;;;;;;
2020/01/29 02:24:07;;;;;;;2.9;0.8;;;;;;;;;;;;;
2020/01/29 02:29:10;;;;;;;2.3;0.7;;;;;;;;;;;;;
2020/01/29 02:31:31;;;;;;;1.9;0.6;;;;;;;;;;;;;
2020/01/29 02:33:58;;;;;;;1.4;0.5;;;;;;;;;;;;;
2020/01/29 02:36:14;;;;;;;1.2;0.5;;;;;;;;;;;;;
2020/01/29 02:38:39;;;;;;;1.6;0.6;;;;;;;;;;;;;
2020/01/29 02:41:07;;;;;;;1.5;0.6;;;;;;;;;;;;;
2020/01/29 02:43:33;;;;;;;1.1;0.5;;;;;;;;;;;;;
2020/01/29 02:45:58;;;;;;;1.5;0.6;;;;;;;;;;;;;
2020/01/29 02:48:26;;;;;;;1.9;0.6;;;;;;;;;;;;;
2020/01/29 02:50:51;;;;;;;2.2;0.6;;;;;;;;;;;;;
2020/01/29 02:53:23;;;;;;;1.6;0.6;;;;;;;;;;;;;
2020/01/29 02:55:48;;;;;;;1.3;0.7;;;;;;;;;;;;;
2020/01/29 02:58:13;;;;;;;2;0.8;;;;;;;;;;;;;
2020/01/29 03:00:38;;;;;;;1.8;0.7;;;;;;;;;;;;;
2020/01/29 03:03:04;;;;;;;2;0.8;;;;;;;;;;;;;
2020/01/29 03:05:37;;;;;;;1.8;0.7;;;;;;;;;;;;;
2020/01/29 03:08:02;;;;;;;2.7;0.7;;;;;;;;;;;;;
2020/01/29 03:10:31;;;;;;;1.1;0.5;;;;;;;;;;;;;
2020/01/29 03:12:57;;;;;;;1.9;0.7;;;;;;;;;;;;;
2020/01/29 03:15:32;;;;;;;1.4;0.6;;;;;;;;;;;;;
2020/01/29 03:18:46;;;;;;;1.4;0.6;;;;;;;;;;;;;
2020/01/29 03:21:11;;;;;;;1.3;0.7;;;;;;;;;;;;;
2020/01/29 03:23:00;;;;;;;0.7;0.6;;;;;;;;;;;;;
2020/01/29 03:25:23;;;;;;;0.7;0.7;;;;;;;;;;;;;
2020/01/29 03:27:48;;;;;;;0.8;0.6;;;;;;;;;;;;;
2020/01/29 03:30:21;;;;;;;0.5;0.4;;;;;;;;;;;;;
2020/01/29 03:35:15;;;;;;;0.5;0.5;;;;;;;;;;;;;
2020/01/29 03:37:40;;;;;;;0.3;0.3;;;;;;;;;;;;;
2020/01/29 03:40:06;;;;;;;0.5;0.4;;;;;;;;;;;;;
2020/01/29 03:42:31;;;;;;;0.6;0.4;;;;;;;;;;;;;
2020/01/29 03:44:56;;;;;;;0.7;0.5;;;;;;;;;;;;;
2020/01/29 03:47:21;;;;;;;0.5;0.4;;;;;;;;;;;;;
2020/01/29 03:49:46;;;;;;;0.8;0.3;;;;;;;;;;;;;
2020/01/29 03:52:11;;;;;;;0.5;0.4;;;;;;;;;;;;;
2020/01/29 03:54:36;;;;;;;0.3;0.3;;;;;;;;;;;;;
2020/01/29 03:57:12;;;;;;;0.6;0.4;;;;;;;;;;;;;
2020/01/29 03:59:37;;;;;;;0.9;0.7;;;;;;;;;;;;;
2020/01/29 04:02:34;;;;;;;1.8;1.3;;;;;;;2.25;90.64453;928.5135;;;;
2020/01/29 04:05:00;;;;;;;3;1.6;;;;;;;2.24;91.24707;928.6225;;;;
2020/01/29 04:07:25;;;;;;;2;1.5;;;;;;;2.25;91.03613;928.5308;;;;
2020/01/29 04:09:50;;;;;;;2;1.8;;;;;;;2.28;90.90723;928.6617;;;;
2020/01/29 04:12:15;;;;;;;1.6;1.5;;;;;;;2.22;90.96094;928.8778;;;;
2020/01/29 04:14:43;;;;;;;1.5;1.4;;;;;;;2.05;91.64258;928.9966;;;;
2020/01/29 04:17:24;;;;;;;2;1.9;;;;;;;2.11;91.82227;928.6965;;;;
2020/01/29 04:19:42;;;;;;;1.6;1.5;;;;;;;2.12;91.71484;929.0023;;;;
2020/01/29 04:22:53;;;;;;;1.5;1.4;;;;;;;2.16;91.85449;928.9081;;;;
2020/01/29 04:24:32;;;;;;;1.6;1.4;;;;;;;2.08;91.76953;928.9439;;;;
2020/01/29 04:27:09;;;;;;;1.3;1.2;;;;;;;2.08;91.91699;928.8734;;;;
2020/01/29 04:29:33;;;;;;;1.3;1.2;;;;;;;2.13;92.16211;929.1149;;;;
2020/01/29 04:32:07;;;;;;;1.3;1.2;;;;;;;2.19;91.84961;929.2874;;;;
2020/01/29 04:34:47;;;;;;;1.4;1.2;;;;;;;2.24;91.57129;929.1415;;;;
2020/01/29 04:37:12;;;;;;;1;0.9;;;;;;;2.43;90.68262;929.1614;;;;
2020/01/29 04:39:53;;;;;;;2.2;1.3;;;;;;;2.48;90.11133;929.0308;;;;
2020/01/29 04:42:18;;;;;;;1.6;1.5;;;;;;;2.49;90.24609;929.1983;;;;
2020/01/29 04:44:43;;;;;;;2.5;2;;;;;;;2.54;90.01074;929.3582;;;;
2020/01/29 04:47:08;;;;;;;3.3;2.7;;;;;;;2.52;89.7832;929.3428;;;;
2020/01/29 04:49:33;;;;;;;1.1;0.8;;;;;;;2.37;88.8418;929.2963;;;;
2020/01/29 04:51:58;;;;;;;1.7;1.3;;;;;;;2.4;88.97461;929.4715;;;;
2020/01/29 04:54:23;;;;;;;3.1;2;;;;;;;2.54;88.87891;929.5131;;;;
2020/01/29 04:56:48;;;;;;;2.8;2.4;;;;;;;2.6;88.71094;929.5616;;;;
2020/01/29 04:59:14;;;;;;;2.2;2;;;;;;;2.61;88.79395;929.6533;;;;
2020/01/29 05:01:56;;;;;;;2.6;1.5;;;;;;;2.49;89.24902;929.4882;;;;
2020/01/29 05:04:21;;;;;;;2.8;1.5;;;;;;;2.22;90.54688;929.5485;;;;
2020/01/29 05:06:46;;;;;;;1.5;1.1;;;;;;;2.18;91.22266;929.5659;;;;
2020/01/29 05:09:11;;;;;;;0.9;0.8;;;;;;;2.2;91.38281;929.6608;;;;
2020/01/29 05:11:49;;;;;;;1.6;1;;;;;;;2.24;90.89941;929.7517;;;;
2020/01/29 05:14:14;;;;;;;0.7;0.7;;;;;;;2.38;90.14453;929.9102;;;;
2020/01/29 05:16:45;;;;;;;1;0.8;;;;;;;2.46;89.97168;929.9737;;;;
2020/01/29 05:19:10;;;;;;;1.7;1;;;;;;;2.52;89.77246;929.9092;;;;
2020/01/29 05:21:35;;;;;;;1.6;1.2;;;;;;;2.66;89.08301;929.843;;;;
2020/01/29 05:24:00;;;;;;;2;1.4;;;;;;;2.64;88.95605;930.0721;;;;
2020/01/29 05:26:26;;;;;;;2.7;1.4;;;;;;;2.68;88.8291;930.0896;;;;
2020/01/29 05:28:51;;;;;;;1.9;1.6;;;;;;;2.7;88.78809;930.1859;;;;
2020/01/29 05:31:23;;;;;;;2.1;1.5;;;;;;;2.68;88.80859;930.2704;;;;
2020/01/29 05:33:48;;;;;;;1.5;1.1;;;;;;;2.79;88.68359;930.3265;;;;
2020/01/29 05:36:16;;;;;;;1.3;0.9;;;;;;;2.81;88.36426;930.3125;;;;
2020/01/29 05:38:41;;;;;;;4.3;3.9;;;;;;;2.74;88.43848;930.2867;;;;
2020/01/29 05:41:17;;;;;;;2.7;2.4;;;;;;;2.68;88.67383;930.3789;;;;
2020/01/29 05:43:42;;;;;;;5.9;5.3;;;;;;;2.53;89.40234;930.4186;;;;
2020/01/29 05:46:11;;;;;;;4.1;3.6;;;;;;;2.33;90.32324;930.4152;;;;
2020/01/29 05:48:36;;;;;;;2.6;1.9;;;;;;;2.22;91.17383;930.4171;;;;
2020/01/29 05:51:14;;;;;;;8.1;5.6;;;;;;;2.21;91.3291;930.5275;;;;
2020/01/29 05:53:58;;;;;;;17.7;13.9;;;;;;;2.2;91.22852;930.4045;;;;
2020/01/29 05:56:33;;;;;;;10.4;7.8;;;;;;;2.15;91.67578;930.5577;;;;
2020/01/29 05:58:59;;;;;;;2.8;1.8;;;;;;;2.27;91.40918;930.5762;;;;
2020/01/29 06:01:29;;;;;;;2;1.6;;;;;;;2.26;91.08301;930.6781;;;;
2020/01/29 06:03:54;;;;;;;2;1.3;;;;;;;2.22;91.32129;930.6984;;;;
2020/01/29 06:06:20;;;;;;;1.8;1.5;;;;;;;2.25;91.28223;930.9214;;;;
2020/01/29 06:08:45;;;;;;;2;1.5;;;;;;;2.21;90.9707;930.8007;;;;
2020/01/29 06:11:23;;;;;;;2.5;1.7;;;;;;;2.07;91.37793;930.9034;;;;
2020/01/29 06:13:48;;;;;;;3;2;;;;;;;2.08;91.77148;930.9572;;;;
2020/01/29 06:16:33;;;;;;;1.6;1.1;;;;;;;2.04;91.67285;930.9597;;;;
2020/01/29 06:18:58;;;;;;;1.4;1.3;;;;;;;2.11;91.75488;931.0159;;;;
2020/01/29 06:21:31;;;;;;;1.8;1.3;;;;;;;2.26;91.37402;930.9892;;;;
2020/01/29 06:23:56;;;;;;;1.1;1;;;;;;;2.38;90.6377;931.0341;;;;
2020/01/29 06:26:34;;;;;;;1.5;1;;;;;;;2.5;90.36035;930.9835;;;;
2020/01/29 06:28:59;;;;;;;1.4;0.7;;;;;;;2.59;89.66211;931.1345;;;;
2020/01/29 06:31:24;;;;;;;2;1;;;;;;;2.63;89.2793;931.1853;;;;
2020/01/29 06:33:49;;;;;;;0.9;0.8;;;;;;;2.65;89.09277;931.2566;;;;
2020/01/29 06:36:14;;;;;;;1.4;1;;;;;;;2.72;88.92676;931.2177;;;;
2020/01/29 06:38:39;;;;;;;1.8;1.1;;;;;;;2.73;88.7959;931.2698;;;;
2020/01/29 06:41:04;;;;;;;3.7;2.6;;;;;;;2.62;88.84961;931.3414;;;;
2020/01/29 06:43:29;;;;;;;3.9;2.7;;;;;;;2.53;89.49219;931.2671;;;;
2020/01/29 06:45:54;;;;;;;4.1;3.5;;;;;;;2.61;89.37402;931.3788;;;;
2020/01/29 06:48:19;;;;;;;7.7;6.8;;;;;;;2.54;89.32715;931.4601;;;;
2020/01/29 06:50:45;;;;;;;3.4;2.8;;;;;;;2.49;89.55176;931.4467;;;;
2020/01/29 06:53:10;;;;;;;1.7;1.6;;;;;;;2.58;89.48047;931.4705;;;;
2020/01/29 06:55:35;;;;;;;3.5;1.4;;;;;;;2.55;88.95996;931.579;;;;
2020/01/29 06:58:00;;;;;;;1.8;1.6;;;;;;;2.61;88.55859;931.625;;;;
2020/01/29 07:00:25;;;;;;;3.7;2.8;;;;;;;2.6;88.3877;931.6262;;;;
2020/01/29 07:02:50;;;;;;;2;0.8;;;;;;;2.52;88.05566;931.6967;;;;
2020/01/29 07:05:15;;;;;;;1.5;0.8;;;;;;;2.64;87.92285;931.6571;;;;
2020/01/29 07:07:40;;;;;;;2.8;2;;;;;;;2.73;87.31738;931.6331;;;;
2020/01/29 07:10:05;;;;;;;1.6;0.8;;;;;;;2.82;87.23145;931.6727;;;;
2020/01/29 07:12:31;;;;;;;1.1;0.7;;;;;;;2.89;86.55273;931.6642;;;;
2020/01/29 07:14:56;;;;;;;2.6;0.9;;;;;;;2.86;86.30078;931.6597;;;;
2020/01/29 07:17:21;;;;;;;1.4;0.9;;;;;;;2.83;86.57129;931.7208;;;;
2020/01/29 07:19:46;;;;;;;1.3;0.9;;;;;;;2.91;86.48926;931.7238;;;;
2020/01/29 07:22:11;;;;;;;2;1.2;;;;;;;2.96;86.18652;931.7283;;;;
2020/01/29 07:24:36;;;;;;;2.7;1.9;;;;;;;2.99;85.97852;931.6451;;;;
2020/01/29 07:27:02;;;;;;;3;1.9;;;;;;;3.07;85.71289;931.7032;;;;
2020/01/29 07:29:27;;;;;;;9.9;2.6;;;;;;;3.05;85.45117;931.8105;;;;
2020/01/29 07:31:52;;;;;;;5.7;2.3;;;;;;;2.97;85.94141;931.6886;;;;
2020/01/29 07:34:17;;;;;;;2.4;1.7;;;;;;;3.02;85.71484;931.6705;;;;
2020/01/29 07:36:42;;;;;;;12.2;3.1;;;;;;;3.1;85.28223;931.7608;;;;
2020/01/29 07:39:08;;;;;;;5.2;2;;;;;;;3.08;85.31055;931.7986;;;;
2020/01/29 07:41:33;;;;;;;4.3;2.2;;;;;;;3.08;85.18848;931.7256;;;;
2020/01/29 07:43:59;;;;;;;3.4;2.1;;;;;;;3.14;85.37891;931.713;;;;
2020/01/29 07:46:24;;;;;;;5;3.2;;;;;;;3.2;85.18945;931.7103;;;;
2020/01/29 07:48:50;;;;;;;3.5;2.7;;;;;;;3.24;85.13184;931.6286;;;;
2020/01/29 07:51:14;;;;;;;6.5;2.7;;;;;;;3.44;84.43945;931.6322;;;;
2020/01/29 07:53:40;;;;;;;12;3.8;;;;;;;3.42;84.11035;931.6672;;;;
2020/01/29 07:56:05;;;;;;;8.8;4.5;;;;;;;3.47;84.05566;931.6576;;;;
2020/01/29 07:58:31;;;;;;;6.8;3;;;;;;;3.49;83.47363;931.5927;;;;
2020/01/29 08:00:56;;;;;;;10.3;3.9;;;;;;;3.57;83.1748;931.6089;;;;
2020/01/29 08:03:21;;;;;;;9.9;3.8;;;;;;;3.63;82.96094;931.7129;;;;
2020/01/29 08:05:46;;;;;;;16.3;8.8;;;;;;;3.5;83.08203;931.6992;;;;
2020/01/29 08:08:11;;;;;;;22.7;12.9;;;;;;;3.53;83.33398;931.7314;;;;
2020/01/29 08:10:36;;;;;;;10.9;6.8;;;;;;;3.48;83.14551;931.7018;;;;
2020/01/29 08:13:01;;;;;;;16.6;10.9;;;;;;;3.55;83.45215;931.5847;;;;
2020/01/29 08:15:26;;;;;;;19.1;12;;;;;;;3.61;83.05762;931.6069;;;;
2020/01/29 08:17:52;;;;;;;16.4;9.3;;;;;;;3.73;82.65527;931.6689;;;;
2020/01/29 08:20:17;;;;;;;12.5;7.3;;;;;;;3.82;82.28906;931.6429;;;;
2020/01/29 08:22:42;;;;;;;6.6;4.3;;;;;;;3.91;81.8125;931.5126;;;;
2020/01/29 08:25:07;;;;;;;7.3;4.5;;;;;;;4.01;81.19238;931.673;;;;
2020/01/29 08:27:32;;;;;;;9.2;4.5;;;;;;;4.01;81.28223;931.7233;;;;
2020/01/29 08:29:57;;;;;;;5.7;3.7;;;;;;;3.96;81.15918;931.7864;;;;
2020/01/29 08:32:22;;;;;;;8.7;3.8;;;;;;;4.02;81.27246;931.7527;;;;
2020/01/29 08:34:47;;;;;;;6.8;3.4;;;;;;;3.97;81.30859;931.723;;;;
2020/01/29 08:37:12;;;;;;;5.7;3.9;;;;;;;4.04;81.34375;931.7776;;;;
2020/01/29 08:39:38;;;;;;;6.7;4.1;;;;;;;4.04;81.6582;931.7388;;;;
2020/01/29 08:42:03;;;;;;;5.3;3.2;;;;;;;4.1;80.51172;931.6844;;;;
2020/01/29 08:44:28;;;;;;;4.2;3.1;;;;;;;4.2;79.58594;931.6331;;;;
2020/01/29 08:46:53;;;;;;;5.3;2.8;;;;;;;4.18;80.06543;931.7059;;;;
2020/01/29 08:49:18;;;;;;;8.6;5.2;;;;;;;4.11;80.04102;931.7067;;;;
2020/01/29 08:51:43;;;;;;;4.7;3;;;;;;;4.16;80.37598;931.762;;;;
2020/01/29 08:54:09;;;;;;;7.5;3.5;;;;;;;4.23;80.80566;931.8342;;;;
2020/01/29 08:56:34;;;;;;;9.4;4.2;;;;;;;4.35;80.10645;931.8406;;;;
2020/01/29 08:59:08;;;;;;;3.4;2.8;;;;;;;4.36;79.96484;931.8528;;;;
2020/01/29 09:01:24;;;;;;;5.6;3.2;;;;;;;4.42;79.13086;931.9412;;;;
2020/01/29 09:03:49;;;;;;;6;3.5;;;;;;;4.3;79.82715;931.8829;;;;
2020/01/29 09:06:16;;;;;;;4.4;2.8;;;;;;;4.08;79.37207;931.9825;;;;
2020/01/29 09:08:39;;;;;;;8.1;3.4;;;;;;;4.01;79.7168;932.0185;;;;
2020/01/29 09:11:04;;;;;;;8.8;4.2;;;;;;;3.97;81.04883;931.993;;;;
2020/01/29 09:13:29;;;;;;;11.2;7.1;;;;;;;4.09;80.90332;932.0561;;;;
2020/01/29 09:15:55;;;;;;;17.6;15.4;;;;;;;4.13;81.28223;931.9993;;;;
2020/01/29 09:18:20;;;;;;;13.8;11.3;;;;;;;4.12;80.96484;931.9929;;;;
2020/01/29 09:20:45;;;;;;;14.3;11;;;;;;;4.07;81.26953;932.046;;;;
2020/01/29 09:23:10;;;;;;;9.6;7.2;;;;;;;4.2;81.59766;932.1844;;;;
2020/01/29 09:25:37;;;;;;;9.3;6.7;;;;;;;4.31;80.61719;932.1171;;;;
2020/01/29 09:28:02;;;;;;;8.1;4.5;;;;;;;4.24;80.32324;932.0778;;;;
2020/01/29 09:30:27;;;;;;;5.2;4;;;;;;;4.4;79.19531;932.1425;;;;
2020/01/29 09:32:52;;;;;;;4.6;3.4;;;;;;;4.53;79.05957;932.224;;;;
2020/01/29 09:35:17;;;;;;;6.3;3.4;;;;;;;4.72;77.83398;932.2631;;;;
2020/01/29 09:37:42;;;;;;;5;3;;;;;;;5.05;78.05273;932.2153;;;;
2020/01/29 09:40:07;;;;;;;6.6;3.6;;;;;;;5.5;75.67383;932.2482;;;;
2020/01/29 09:42:32;;;;;;;5;3.2;;;;;;;5.74;74.34082;932.3557;;;;
2020/01/29 09:44:57;;;;;;;5.8;3.3;;;;;;;5.94;73.95801;932.2585;;;;
2020/01/29 09:47:23;;;;;;;6.4;3.1;;;;;;;6.09;72.26465;932.2636;;;;
2020/01/29 09:49:48;;;;;;;5.9;2.9;;;;;;;6.16;71.77832;932.2094;;;;
2020/01/29 09:52:13;;;;;;;9.8;2.8;;;;;;;6.1;72.05176;932.4392;;;;
2020/01/29 09:54:38;;;;;;;7.9;4.1;;;;;;;6.05;72.60938;932.3625;;;;
2020/01/29 09:57:03;;;;;;;5.2;2.5;;;;;;;5.87;72.27344;932.4688;;;;
2020/01/29 09:59:28;;;;;;;4.4;2.2;;;;;;;5.48;74.28418;932.5037;;;;
2020/01/29 10:01:53;;;;;;;4.6;2.1;;;;;;;5.39;75.82422;932.5963;;;;
2020/01/29 10:04:18;;;;;;;4.4;2.5;;;;;;;5.47;76.01855;932.7316;;;;
2020/01/29 10:06:44;;;;;;;5.3;2.5;;;;;;;5.65;74.04199;932.6595;;;;
2020/01/29 10:09:09;;;;;;;9.5;3.3;;;;;;;5.33;75.16016;932.697;;;;
2020/01/29 10:11:34;;;;;;;8.5;3.1;;;;;;;5.09;77.13574;932.8348;;;;
2020/01/29 10:14:00;;;;;;;4.8;3;;;;;;;5.13;76.35449;932.7986;;;;
2020/01/29 10:16:25;;;;;;;7;3.4;;;;;;;5.26;76.4668;932.8212;;;;
2020/01/29 10:18:50;;;;;;;6.4;3.4;;;;;;;5.47;74.48438;932.8192;;;;
2020/01/29 10:21:15;;;;;;;7.1;3.4;;;;;;;5.82;74.79395;932.8256;;;;
2020/01/29 10:23:40;;;;;;;6;3.4;;;;;;;6.09;74.02832;932.812;;;;
2020/01/29 10:26:06;;;;;;;6.6;3.7;;;;;;;6.34;71.49219;932.7667;;;;
2020/01/29 10:28:31;;;;;;;6.1;3.5;;;;;;;6.31;70.35742;932.7101;;;;
2020/01/29 10:30:56;;;;;;;4.4;2.6;;;;;;;6.31;70.73047;932.748;;;;
2020/01/29 10:33:22;;;;;;;4.5;1.9;;;;;;;6.41;66.60742;932.7081;;;;
2020/01/29 10:35:47;;;;;;;3.7;2.6;;;;;;;6.37;66.82813;932.6344;;;;
2020/01/29 10:38:13;;;;;;;5.3;3.2;;;;;;;6.18;69.75977;932.635;;;;
2020/01/29 10:40:38;;;;;;;6;3.4;;;;;;;6.31;69.54297;932.5653;;;;
2020/01/29 10:43:03;;;;;;;4.8;2.7;;;;;;;6.64;65.20605;932.412;;;;
2020/01/29 10:45:28;;;;;;;3.8;2.1;;;;;;;6.78;64.70703;932.5019;;;;
2020/01/29 10:47:53;;;;;;;2.7;1.7;;;;;;;7.07;64.66016;932.3513;;;;
2020/01/29 10:50:18;;;;;;;8;5.3;;;;;;;6.98;67.41113;932.3323;;;;
2020/01/29 10:52:49;;;;;;;13.6;9.1;;;;;;;7.08;68.00391;932.2216;;;;
2020/01/29 10:56:29;;;;;;;9.3;5.4;;;;;;;7.31;67.17871;932.2159;;;;
2020/01/29 10:57:33;;;;;;;19.7;13;;;;;;;7.18;68.69922;932.2885;;;;
2020/01/29 10:59:58;;;;;;;27.2;18;;;;;;;6.61;69.50195;932.2899;;;;
2020/01/29 11:02:24;;;;;;;10.7;6.3;;;;;;;6.74;68.82129;932.283;;;;
2020/01/29 11:04:48;;;;;;;7.9;4.2;;;;;;;6.6;69.20703;932.3139;;;;
2020/01/29 11:07:14;;;;;;;4.1;2.1;;;;;;;6.6;68.53906;932.2364;;;;
2020/01/29 11:09:39;;;;;;;6;2.2;;;;;;;6.86;67.1543;932.2137;;;;
2020/01/29 11:14:50;;;;;;;4;1.7;;;;;;;6.8;68.24316;931.9451;;;;
2020/01/29 11:16:54;;;;;;;2.2;1.3;;;;;;;6.52;67.90234;931.9402;;;;
2020/01/29 11:19:19;;;;;;;8.7;4.8;;;;;;;6.23;69.08887;932.0036;;;;
2020/01/29 11:21:44;;;;;;;6.3;2.7;;;;;;;6.09;71.0459;932.1387;;;;
2020/01/29 11:24:11;;;;;;;4.4;1.8;;;;;;;6.04;71.27441;932.127;;;;
2020/01/29 11:26:36;;;;;;;4.2;2.5;;;;;;;6.12;69.88477;932.0546;;;;
2020/01/29 11:29:02;;;;;;;5.7;2.1;;;;;;;5.96;69.83594;932.1189;;;;
2020/01/29 11:31:28;;;;;;;3.6;1.8;;;;;;;5.97;68.40234;932.0266;;;;
2020/01/29 11:33:52;;;;;;;4;1.6;;;;;;;5.92;68.89258;932.0402;;;;
2020/01/29 11:36:18;;;;;;;7.2;2.3;;;;;;;5.8;71.5166;932.0912;;;;
2020/01/29 11:38:43;;;;;;;5.1;2.3;;;;;;;5.61;71.14551;932.1005;;;;
2020/01/29 11:41:08;;;;;;;4.3;2.2;;;;;;;5.51;69.8877;932.119;;;;
2020/01/29 11:43:34;;;;;;;7.5;2.8;;;;;;;5.61;70.00684;932.2443;;;;
2020/01/29 11:46:01;;;;;;;4.6;2.3;;;;;;;5.67;68.62598;932.1418;;;;
2020/01/29 11:48:25;;;;;;;9.2;4.1;;;;;;;5.69;71.68848;932.3506;;;;
2020/01/29 11:50:50;;;;;;;7.4;4.3;;;;;;;5.48;74.74707;932.353;;;;
2020/01/29 11:53:15;;;;;;;6.3;3.9;;;;;;;5.23;76.10156;932.321;;;;
2020/01/29 11:55:41;;;;;;;6.1;3.9;;;;;;;4.92;76.13672;932.2567;;;;
2020/01/29 11:58:06;;;;;;;6;2.9;;;;;;;4.87;72.66797;932.2855;;;;
2020/01/29 12:00:31;;;;;;;4.1;2.3;;;;;;;5.08;69.34375;932.1852;;;;
2020/01/29 12:02:56;;;;;;;6.2;3.7;;;;;;;5.19;71.16504;932.0728;;;;
2020/01/29 12:05:22;;;;;;;3.9;2;;;;;;;5.09;66.65039;932.1247;;;;
2020/01/29 12:07:47;;;;;;;6.5;3.4;;;;;;;5.39;68.0957;932.0984;;;;
2020/01/29 12:10:12;;;;;;;8.9;4.4;;;;;;;5.38;71.34473;932.1841;;;;
2020/01/29 12:12:38;;;;;;;10.5;4.4;;;;;;;5.65;70.71289;932.2924;;;;
2020/01/29 12:15:04;;;;;;;6.2;3.1;;;;;;;5.92;68.39551;932.3688;;;;
2020/01/29 12:17:29;;;;;;;5.1;2.6;;;;;;;5.68;68.36816;932.3433;;;;
2020/01/29 12:19:56;;;;;;;8.5;4.1;;;;;;;5.59;69.61914;932.3676;;;;
2020/01/29 12:22:21;;;;;;;6;3.3;;;;;;;5.32;70.79199;932.2399;;;;
2020/01/29 12:24:46;;;;;;;8.4;3.8;;;;;;;4.64;74.66797;932.2678;;;;
2020/01/29 12:27:12;;;;;;;7.6;4.3;;;;;;;4.72;73.64453;932.2631;;;;
2020/01/29 12:29:37;;;;;;;9.5;4.5;;;;;;;4.57;74.02441;932.2233;;;;
2020/01/29 12:32:03;;;;;;;7.7;4.4;;;;;;;4.38;74.5752;932.2394;;;;
2020/01/29 12:34:28;;;;;;;5.4;2.7;;;;;;;4.33;74.27441;932.1674;;;;
2020/01/29 12:36:53;;;;;;;6.2;3.2;;;;;;;4.51;75.01367;932.2;;;;
2020/01/29 12:39:18;;;;;;;5.5;2.5;;;;;;;4.37;72.7168;932.0925;;;;
2020/01/29 12:41:43;;;;;;;7.1;2.7;;;;;;;4.27;74.80371;932.132;;;;
2020/01/29 12:44:09;;;;;;;4.9;2.6;;;;;;;4.42;75.50586;932.1539;;;;
2020/01/29 12:46:34;;;;;;;7.1;4;;;;;;;4.66;73.83594;932.0308;;;;
2020/01/29 12:49:01;;;;;;;9.2;5.6;;;;;;;4.66;73.69141;931.9828;;;;
2020/01/29 12:51:26;;;;;;;5.6;3.4;;;;;;;4.7;75.28516;932.0396;;;;
2020/01/29 12:53:51;;;;;;;5.7;2.6;;;;;;;4.74;76.14941;931.9924;;;;
2020/01/29 12:56:17;;;;;;;4.3;1.6;;;;;;;4.54;76.87793;931.8931;;;;
2020/01/29 12:58:42;;;;;;;3.1;1.5;;;;;;;4.49;75.87891;931.8962;;;;
2020/01/29 13:01:07;;;;;;;6.5;3.5;;;;;;;4.6;75.4707;931.8495;;;;
2020/01/29 13:03:32;;;;;;;9.4;4.4;;;;;;;4.72;78.35254;931.8484;;;;
2020/01/29 13:05:59;;;;;;;6.3;3;;;;;;;4.56;79.34766;931.8613;;;;
2020/01/29 13:08:24;;;;;;;9.1;4.4;;;;;;;4.5;79.91016;931.7181;;;;
2020/01/29 13:10:49;;;;;;;13.5;7.3;;;;;;;4.62;79.94434;931.7422;;;;
2020/01/29 13:13:15;;;;;;;25.4;16;;;;;;;4.63;78.93066;931.8109;;;;
2020/01/29 13:15:40;;;;;;;11.4;6.3;;;;;;;4.67;78.87402;931.741;;;;
2020/01/29 13:18:07;;;;;;;10.5;6.6;;;;;;;4.67;79.20996;931.7802;;;;
2020/01/29 13:20:32;;;;;;;13.2;7.8;;;;;;;4.66;79.96484;931.8906;;;;
2020/01/29 13:25:22;;;;;;;16.8;8.1;;;;;;;4.65;79.97266;932.055;;;;
2020/01/29 13:27:47;;;;;;;23.3;10.3;;;;;;;4.6;80.44824;932.1183;;;;
2020/01/29 13:30:13;;;;;;;15.4;5.5;;;;;;;4.44;81.20703;932.2173;;;;
2020/01/29 13:32:38;;;;;;;13.6;4.9;;;;;;;4.29;82.10059;932.25;;;;
2020/01/29 13:35:03;;;;;;;18.5;7;;;;;;;4.29;81.85254;932.3373;;;;
2020/01/29 13:37:28;;;;;;;42.9;15.7;;;;;;;4.23;81.98926;932.3314;;;;
2020/01/29 13:39:53;;;;;;;36.5;15;;;;;;;4.39;80.89063;932.3948;;;;
2020/01/29 13:42:18;;;;;;;25.8;13.7;;;;;;;4.49;80.10059;932.6016;;;;
2020/01/29 13:44:43;;;;;;;23.3;11.8;;;;;;;4.47;80.625;932.7381;;;;
2020/01/29 13:47:09;;;;;;;24.8;9;;;;;;;4.27;81.4668;932.8334;;;;
2020/01/29 13:49:34;;;;;;;95.5;68.8;;;;;;;4.2;81.64258;932.7809;;;;
2020/01/29 13:51:59;;;;;;;35.7;19.4;;;;;;;4.28;81.2998;932.6841;;;;
2020/01/29 13:54:24;;;;;;;25.1;12.9;;;;;;;4.36;80.45801;932.6802;;;;
2020/01/29 13:56:49;;;;;;;29.4;21.9;;;;;;;4.34;81.00586;932.8011;;;;
2020/01/29 13:59:14;;;;;;;11.1;6.2;;;;;;;4.41;80.58105;932.9017;;;;
2020/01/29 14:01:39;;;;;;;8.8;5;;;;;;;4.28;80.90625;932.9684;;;;
2020/01/29 14:04:04;;;;;;;7.2;4.1;;;;;;;4.27;80.82422;932.8972;;;;
2020/01/29 14:06:30;;;;;;;8.3;3.9;;;;;;;4.31;80.41602;932.9392;;;;
2020/01/29 14:08:55;;;;;;;7.7;3.6;;;;;;;4.08;81.58594;932.7977;;;;
2020/01/29 14:11:21;;;;;;;10;5.1;;;;;;;3.98;82.49121;932.8636;;;;
2020/01/29 14:13:46;;;;;;;16.7;11.6;;;;;;;3.86;83.05078;932.7455;;;;
2020/01/29 14:16:11;;;;;;;12.9;7.8;;;;;;;3.74;83.61133;932.743;;;;
2020/01/29 14:18:37;;;;;;;10.8;7.2;;;;;;;3.59;84.56152;932.6074;;;;
2020/01/29 14:21:02;;;;;;;11;6.7;;;;;;;3.69;84.08496;932.7575;;;;
2020/01/29 14:23:27;;;;;;;10.2;6.9;;;;;;;3.78;84.29395;932.7574;;;;
2020/01/29 14:25:53;;;;;;;23.6;10.6;;;;;;;3.89;84.02344;932.688;;;;
2020/01/29 14:28:19;;;;;;;20.5;10.2;;;;;;;3.93;84.09961;932.6842;;;;
2020/01/29 14:30:43;;;;;;;20.7;10.2;;;;;;;4.02;83.17285;932.7317;;;;
2020/01/29 14:33:08;;;;;;;23.4;12.3;;;;;;;3.88;83.62988;932.7689;;;;
2020/01/29 14:35:34;;;;;;;26.4;12.2;;;;;;;3.92;83.53418;932.7619;;;;
2020/01/29 14:37:59;;;;;;;16.5;7.9;;;;;;;;;;;;;
2020/01/29 14:40:24;;;;;;;12.2;6.2;;;;;;;;;;;;;
2020/01/29 14:42:49;;;;;;;9.8;5.2;;;;;;;;;;;;;
2020/01/29 14:45:14;;;;;;;11.7;6.1;;;;;;;;;;;;;
2020/01/29 14:47:39;;;;;;;10;5.5;;;;;;;;;;;;;
2020/01/29 14:50:05;;;;;;;9.7;4.4;;;;;;;;;;;;;
2020/01/29 14:52:30;;;;;;;7.6;5;;;;;;;;;;;;;
2020/01/29 14:54:55;;;;;;;5.1;3.6;;;;;;;;;;;;;
2020/01/29 14:57:20;;;;;;;7.9;5;;;;;;;;;;;;;
2020/01/29 14:59:45;;;;;;;10.1;5.4;;;;;;;;;;;;;
2020/01/29 15:02:11;;;;;;;10.7;6.2;;;;;;;;;;;;;
2020/01/29 15:04:35;;;;;;;9.6;6.2;;;;;;;;;;;;;
2020/01/29 15:07:01;;;;;;;8.9;5.4;;;;;;;;;;;;;
2020/01/29 15:09:26;;;;;;;7.9;4.5;;;;;;;;;;;;;
2020/01/29 15:11:51;;;;;;;6.3;4.2;;;;;;;;;;;;;
2020/01/29 15:14:16;;;;;;;6.4;4.2;;;;;;;;;;;;;
2020/01/29 15:16:41;;;;;;;7.5;5.4;;;;;;;;;;;;;
2020/01/29 15:19:06;;;;;;;9.5;5.8;;;;;;;;;;;;;
2020/01/29 15:21:31;;;;;;;9.5;5.6;;;;;;;;;;;;;
2020/01/29 15:23:56;;;;;;;14;7.1;;;;;;;;;;;;;
2020/01/29 15:26:21;;;;;;;12.9;9.4;;;;;;;;;;;;;
2020/01/29 15:28:46;;;;;;;8.6;5.6;;;;;;;;;;;;;
2020/01/29 15:31:12;;;;;;;10.2;6.4;;;;;;;;;;;;;
2020/01/29 15:33:37;;;;;;;5.9;4.1;;;;;;;;;;;;;
2020/01/29 15:36:02;;;;;;;11.5;6;;;;;;;;;;;;;
2020/01/29 15:38:28;;;;;;;7.8;5.1;;;;;;;;;;;;;
2020/01/29 15:40:52;;;;;;;8.6;6;;;;;;;;;;;;;
2020/01/29 15:43:18;;;;;;;14.8;9.3;;;;;;;;;;;;;
2020/01/29 15:45:43;;;;;;;20;10.8;;;;;;;;;;;;;
2020/01/29 15:48:08;;;;;;;17.1;10.5;;;;;;;;;;;;;
2020/01/29 15:50:33;;;;;;;10.1;7.3;;;;;;;;;;;;;
2020/01/29 15:52:58;;;;;;;13.7;7.8;;;;;;;;;;;;;
2020/01/29 15:55:23;;;;;;;17.2;11.4;;;;;;;;;;;;;
2020/01/29 15:57:48;;;;;;;10.5;6.5;;;;;;;;;;;;;
2020/01/29 16:00:14;;;;;;;10.4;5.7;;;;;;;;;;;;;
2020/01/29 16:02:39;;;;;;;12.8;5.9;;;;;;;;;;;;;
2020/01/29 16:05:04;;;;;;;8.4;5;;;;;;;;;;;;;
2020/01/29 16:07:29;;;;;;;10;6.1;;;;;;;;;;;;;
2020/01/29 16:09:54;;;;;;;10.6;7.2;;;;;;;;;;;;;
2020/01/29 16:12:19;;;;;;;11.3;7.2;;;;;;;;;;;;;
2020/01/29 16:14:45;;;;;;;10.5;6.5;;;;;;;;;;;;;
2020/01/29 16:17:10;;;;;;;12;6.1;;;;;;;;;;;;;
2020/01/29 16:19:35;;;;;;;7.1;4.1;;;;;;;;;;;;;